Check out our new PWSWeather beta!
PWSweather.com
Personal Weather Stations
Station Observations
GRD01
Warsaw, LesznoPL 05-084

WarsawLesznoPL 05-084

Lat: 52.257404, Lon: 20.564847

Elevation: 298

Station Type: WH3080

http://pogoda.kampinos.waw.pl

High Low Average
Temperature 74.8°F23.8°C 51.4°F10.8°C 63.9°F17.7°C
Dew Point 60.0°F15.6°C 49.5°F9.7°C 52.1°F11.2°C
Winds 9.2 mph 14.8 kmh Calm Calm 2.0 mph SE3.2 kmh SE
Wind Gusts 15.2 mph24.5 kmh -- 5.0 mph8.0 kmh
Humidity 97% 42% 69%
Pressure 30.87 in1045.4 mb 30.79 in1042.7 mb -
Precipitation 0.00 in0.0 mm - -
Hour Temp Dew Point Humidity Winds Wind Gusts Pressure Precip Precip Rate Daily Precip Total
12:00 AM 56.3°F13.5°C 52.5°F11.4°C 87% 0.7 mph NW1.1 kmh NW 1.6 mph2.6 kmh 30.82 in1043.7 mb 0.00 in0.0 mm 0.00 in0.0 mm 0.00 in0.0 mm
12:05 AM 56.3°F13.5°C 52.5°F11.4°C 87% 0.7 mph NW1.1 kmh NW 1.6 mph2.6 kmh 30.38 in1028.8 mb 0.00 in0.0 mm 0.00 in0.0 mm 0.00 in0.0 mm
12:15 AM 55.9°F13.3°C 52.4°F11.3°C 88% 0.7 mph NW1.1 kmh NW 1.6 mph2.6 kmh 30.82 in1043.7 mb 0.00 in0.0 mm 0.00 in0.0 mm 0.00 in0.0 mm
12:30 AM 55.6°F13.1°C 52.1°F11.2°C 88% 0.7 mph NW1.1 kmh NW 1.6 mph2.6 kmh 30.82 in1043.7 mb 0.00 in0.0 mm 0.00 in0.0 mm 0.00 in0.0 mm
12:35 AM 55.8°F13.2°C 52.3°F11.3°C 88% 0.7 mph NW1.1 kmh NW 0.7 mph1.1 kmh 30.38 in1028.8 mb 0.00 in0.0 mm 0.00 in0.0 mm 0.00 in0.0 mm
12:45 AM 55.4°F13.0°C 51.9°F11.1°C 88% 0.7 mph NW1.1 kmh NW 2.2 mph3.5 kmh 30.83 in1044.0 mb 0.00 in0.0 mm 0.00 in0.0 mm 0.00 in0.0 mm
01:00 AM 55.2°F12.9°C 51.7°F10.9°C 88% 0.7 mph NW1.1 kmh NW 1.6 mph2.6 kmh 30.82 in1043.7 mb 0.00 in0.0 mm 0.00 in0.0 mm 0.00 in0.0 mm
01:05 AM 55.2°F12.9°C 51.7°F10.9°C 88% 0.7 mph NW1.1 kmh NW 1.6 mph2.6 kmh 30.38 in1028.8 mb 0.00 in0.0 mm 0.00 in0.0 mm 0.00 in0.0 mm
01:15 AM 54.9°F12.7°C 51.7°F10.9°C 89% 0.7 mph NW1.1 kmh NW 2.2 mph3.5 kmh 30.82 in1043.7 mb 0.00 in0.0 mm 0.00 in0.0 mm 0.00 in0.0 mm
01:30 AM 54.5°F12.5°C 51.3°F10.7°C 89% Calm Calm 2.2 mph3.5 kmh 30.83 in1044.0 mb 0.00 in0.0 mm 0.00 in0.0 mm 0.00 in0.0 mm
01:35 AM 54.5°F12.5°C 51.3°F10.7°C 89% Calm Calm -- 30.39 in1029.1 mb 0.00 in0.0 mm 0.00 in0.0 mm 0.00 in0.0 mm
01:45 AM 54.3°F12.4°C 52.0°F11.1°C 92% Calm Calm 1.6 mph2.6 kmh 30.83 in1044.0 mb 0.00 in0.0 mm 0.00 in0.0 mm 0.00 in0.0 mm
02:00 AM 54.1°F12.3°C 51.9°F11.1°C 92% Calm Calm -- 30.83 in1044.0 mb 0.00 in0.0 mm 0.00 in0.0 mm 0.00 in0.0 mm
02:05 AM 54.1°F12.3°C 51.9°F11.1°C 92% Calm Calm -- 30.38 in1028.8 mb 0.00 in0.0 mm 0.00 in0.0 mm 0.00 in0.0 mm
02:15 AM 53.8°F12.1°C 51.5°F10.8°C 92% Calm Calm -- 30.83 in1044.0 mb 0.00 in0.0 mm 0.00 in0.0 mm 0.00 in0.0 mm
02:30 AM 53.6°F12.0°C 51.3°F10.7°C 92% Calm Calm -- 30.83 in1044.0 mb 0.00 in0.0 mm 0.00 in0.0 mm 0.00 in0.0 mm
02:35 AM 53.6°F12.0°C 51.3°F10.7°C 92% Calm Calm -- 30.39 in1029.1 mb 0.00 in0.0 mm 0.00 in0.0 mm 0.00 in0.0 mm
02:45 AM 53.2°F11.8°C 51.0°F10.6°C 92% 0.7 mph NW1.1 kmh NW 1.6 mph2.6 kmh 30.83 in1044.0 mb 0.00 in0.0 mm 0.00 in0.0 mm 0.00 in0.0 mm
03:00 AM 53.2°F11.8°C 51.0°F10.6°C 92% 0.7 mph NW1.1 kmh NW 1.6 mph2.6 kmh 30.83 in1044.0 mb 0.00 in0.0 mm 0.00 in0.0 mm 0.00 in0.0 mm
03:05 AM 53.2°F11.8°C 51.0°F10.6°C 92% Calm Calm -- 30.39 in1029.1 mb 0.00 in0.0 mm 0.00 in0.0 mm 0.00 in0.0 mm
03:15 AM 52.9°F11.6°C 50.6°F10.3°C 92% Calm Calm 0.7 mph1.1 kmh 30.84 in1044.4 mb 0.00 in0.0 mm 0.00 in0.0 mm 0.00 in0.0 mm
03:30 AM 52.5°F11.4°C 50.3°F10.2°C 92% Calm Calm 2.2 mph3.5 kmh 30.84 in1044.4 mb 0.00 in0.0 mm 0.00 in0.0 mm 0.00 in0.0 mm
03:35 AM 52.5°F11.4°C 50.3°F10.2°C 92% 1.6 mph N2.6 kmh N 2.2 mph3.5 kmh 30.40 in1029.5 mb 0.00 in0.0 mm 0.00 in0.0 mm 0.00 in0.0 mm
03:45 AM 52.2°F11.2°C 49.9°F9.9°C 92% Calm Calm 0.7 mph1.1 kmh 30.84 in1044.4 mb 0.00 in0.0 mm 0.00 in0.0 mm 0.00 in0.0 mm
04:00 AM 52.0°F11.1°C 49.7°F9.8°C 92% Calm Calm 1.6 mph2.6 kmh 30.83 in1044.0 mb 0.00 in0.0 mm 0.00 in0.0 mm 0.00 in0.0 mm
04:05 AM 52.0°F11.1°C 49.7°F9.8°C 92% Calm Calm -- 30.40 in1029.5 mb 0.00 in0.0 mm 0.00 in0.0 mm 0.00 in0.0 mm
04:15 AM 51.8°F11.0°C 49.5°F9.7°C 92% 0.7 mph N1.1 kmh N 1.6 mph2.6 kmh 30.84 in1044.4 mb 0.00 in0.0 mm 0.00 in0.0 mm 0.00 in0.0 mm
04:30 AM 51.6°F10.9°C 49.7°F9.8°C 93% Calm Calm 0.7 mph1.1 kmh 30.84 in1044.4 mb 0.00 in0.0 mm 0.00 in0.0 mm 0.00 in0.0 mm
04:35 AM 51.6°F10.9°C 49.7°F9.8°C 93% Calm Calm -- 30.41 in1029.8 mb 0.00 in0.0 mm 0.00 in0.0 mm 0.00 in0.0 mm
04:45 AM 51.4°F10.8°C 49.5°F9.7°C 93% Calm Calm -- 30.85 in1044.7 mb 0.00 in0.0 mm 0.00 in0.0 mm 0.00 in0.0 mm
05:00 AM 51.6°F10.9°C 49.7°F9.8°C 93% Calm Calm 1.6 mph2.6 kmh 30.85 in1044.7 mb 0.00 in0.0 mm 0.00 in0.0 mm 0.00 in0.0 mm
05:05 AM 51.6°F10.9°C 49.7°F9.8°C 93% Calm Calm -- 30.41 in1029.8 mb 0.00 in0.0 mm 0.00 in0.0 mm 0.00 in0.0 mm
05:15 AM 51.4°F10.8°C 49.5°F9.7°C 93% Calm Calm 1.6 mph2.6 kmh 30.86 in1045.0 mb 0.00 in0.0 mm 0.00 in0.0 mm 0.00 in0.0 mm
05:30 AM 51.6°F10.9°C 49.7°F9.8°C 93% Calm Calm 2.2 mph3.5 kmh 30.86 in1045.0 mb 0.00 in0.0 mm 0.00 in0.0 mm 0.00 in0.0 mm
05:35 AM 51.6°F10.9°C 49.7°F9.8°C 93% Calm Calm 0.7 mph1.1 kmh 30.42 in1030.1 mb 0.00 in0.0 mm 0.00 in0.0 mm 0.00 in0.0 mm
05:45 AM 52.3°F11.3°C 50.7°F10.4°C 94% 0.7 mph N1.1 kmh N 0.7 mph1.1 kmh 30.86 in1045.0 mb 0.00 in0.0 mm 0.00 in0.0 mm 0.00 in0.0 mm
06:00 AM 53.6°F12.0°C 52.2°F11.2°C 95% Calm Calm 11.4 mph18.3 kmh 30.86 in1045.0 mb 0.00 in0.0 mm 0.00 in0.0 mm 0.00 in0.0 mm
06:05 AM 53.2°F11.8°C 51.8°F11.0°C 95% Calm Calm -- 30.41 in1029.8 mb 0.00 in0.0 mm 0.00 in0.0 mm 0.00 in0.0 mm
06:15 AM 55.4°F13.0°C 53.7°F12.1°C 94% Calm Calm 1.6 mph2.6 kmh 30.86 in1045.0 mb 0.00 in0.0 mm 0.00 in0.0 mm 0.00 in0.0 mm
06:30 AM 56.7°F13.7°C 55.2°F12.9°C 95% Calm Calm 1.6 mph2.6 kmh 30.86 in1045.0 mb 0.00 in0.0 mm 0.00 in0.0 mm 0.00 in0.0 mm
06:35 AM 56.5°F13.6°C 55.1°F12.8°C 95% Calm Calm 0.7 mph1.1 kmh 30.42 in1030.1 mb 0.00 in0.0 mm 0.00 in0.0 mm 0.00 in0.0 mm
06:45 AM 58.3°F14.6°C 57.1°F13.9°C 96% 0.7 mph SW1.1 kmh SW 1.6 mph2.6 kmh 30.86 in1045.0 mb 0.00 in0.0 mm 0.00 in0.0 mm 0.00 in0.0 mm
07:00 AM 59.0°F15.0°C 58.2°F14.6°C 97% 3.8 mph SE6.1 kmh SE 5.4 mph8.7 kmh 30.86 in1045.0 mb 0.00 in0.0 mm 0.00 in0.0 mm 0.00 in0.0 mm
07:05 AM 59.0°F15.0°C 58.2°F14.6°C 97% 3.8 mph SE6.1 kmh SE 4.5 mph7.2 kmh 30.41 in1029.8 mb 0.00 in0.0 mm 0.00 in0.0 mm 0.00 in0.0 mm
07:15 AM 60.6°F15.9°C 59.5°F15.3°C 96% 6.0 mph ESE9.7 kmh ESE 7.6 mph12.2 kmh 30.86 in1045.0 mb 0.00 in0.0 mm 0.00 in0.0 mm 0.00 in0.0 mm
07:30 AM 62.1°F16.7°C 60.0°F15.6°C 93% 1.6 mph E2.6 kmh E 6.0 mph9.7 kmh 30.86 in1045.0 mb 0.00 in0.0 mm 0.00 in0.0 mm 0.00 in0.0 mm
07:35 AM 61.9°F16.6°C 59.8°F15.4°C 93% 2.2 mph E3.5 kmh E 3.1 mph5.0 kmh 30.42 in1030.1 mb 0.00 in0.0 mm 0.00 in0.0 mm 0.00 in0.0 mm
07:45 AM 63.1°F17.3°C 59.2°F15.1°C 87% 0.7 mph ENE1.1 kmh ENE 3.8 mph6.1 kmh 30.86 in1045.0 mb 0.00 in0.0 mm 0.00 in0.0 mm 0.00 in0.0 mm
08:00 AM 64.2°F17.9°C 56.5°F13.6°C 76% 3.1 mph E5.0 kmh E 6.9 mph11.1 kmh 30.86 in1045.0 mb 0.00 in0.0 mm 0.00 in0.0 mm 0.00 in0.0 mm
08:05 AM 64.2°F17.9°C 57.2°F14.0°C 78% 2.2 mph NE3.5 kmh NE 3.8 mph6.1 kmh 30.42 in1030.1 mb 0.00 in0.0 mm 0.00 in0.0 mm 0.00 in0.0 mm
08:15 AM 65.5°F18.6°C 55.8°F13.2°C 71% 1.6 mph E2.6 kmh E 8.3 mph13.4 kmh 30.86 in1045.0 mb 0.00 in0.0 mm 0.00 in0.0 mm 0.00 in0.0 mm
08:30 AM 66.7°F19.3°C 55.8°F13.2°C 68% 3.1 mph E5.0 kmh E 9.8 mph15.8 kmh 30.87 in1045.4 mb 0.00 in0.0 mm 0.00 in0.0 mm 0.00 in0.0 mm
08:35 AM 66.6°F19.2°C 56.1°F13.4°C 69% 3.8 mph NE6.1 kmh NE 5.4 mph8.7 kmh 30.42 in1030.1 mb 0.00 in0.0 mm 0.00 in0.0 mm 0.00 in0.0 mm
08:45 AM 67.6°F19.8°C 55.9°F13.3°C 66% 3.1 mph SE5.0 kmh SE 3.8 mph6.1 kmh 30.86 in1045.0 mb 0.00 in0.0 mm 0.00 in0.0 mm 0.00 in0.0 mm
09:00 AM 68.5°F20.3°C 55.0°F12.8°C 62% 5.4 mph NE8.7 kmh NE 7.6 mph12.2 kmh 30.86 in1045.0 mb 0.00 in0.0 mm 0.00 in0.0 mm 0.00 in0.0 mm
09:05 AM 68.4°F20.2°C 55.3°F12.9°C 63% 6.0 mph E9.7 kmh E 7.6 mph12.2 kmh 30.42 in1030.1 mb 0.00 in0.0 mm 0.00 in0.0 mm 0.00 in0.0 mm
09:15 AM 68.9°F20.5°C 54.4°F12.4°C 60% 6.0 mph NE9.7 kmh NE 8.3 mph13.4 kmh 30.87 in1045.4 mb 0.00 in0.0 mm 0.00 in0.0 mm 0.00 in0.0 mm
09:30 AM 69.6°F20.9°C 54.2°F12.3°C 58% 3.8 mph NE6.1 kmh NE 9.8 mph15.8 kmh 30.87 in1045.4 mb 0.00 in0.0 mm 0.00 in0.0 mm 0.00 in0.0 mm
09:35 AM 69.6°F20.9°C 54.7°F12.6°C 59% 4.5 mph NE7.2 kmh NE 6.0 mph9.7 kmh 30.43 in1030.5 mb 0.00 in0.0 mm 0.00 in0.0 mm 0.00 in0.0 mm
09:45 AM 70.7°F21.5°C 52.7°F11.5°C 53% 3.8 mph E6.1 kmh E 7.6 mph12.2 kmh 30.86 in1045.0 mb 0.00 in0.0 mm 0.00 in0.0 mm 0.00 in0.0 mm
10:00 AM 71.1°F21.7°C 53.1°F11.7°C 53% 4.5 mph E7.2 kmh E 6.9 mph11.1 kmh 30.86 in1045.0 mb 0.00 in0.0 mm 0.00 in0.0 mm 0.00 in0.0 mm
10:05 AM 71.1°F21.7°C 53.1°F11.7°C 53% 3.1 mph NE5.0 kmh NE 4.5 mph7.2 kmh 30.42 in1030.1 mb 0.00 in0.0 mm 0.00 in0.0 mm 0.00 in0.0 mm
10:15 AM 71.1°F21.7°C 53.1°F11.7°C 53% 4.5 mph ESE7.2 kmh ESE 7.6 mph12.2 kmh 30.86 in1045.0 mb 0.00 in0.0 mm 0.00 in0.0 mm 0.00 in0.0 mm
10:30 AM 71.6°F22.0°C 53.0°F11.7°C 52% 5.4 mph NE8.7 kmh NE 8.3 mph13.4 kmh 30.86 in1045.0 mb 0.00 in0.0 mm 0.00 in0.0 mm 0.00 in0.0 mm
10:35 AM 71.6°F22.0°C 53.6°F12.0°C 53% 6.0 mph N9.7 kmh N 8.3 mph13.4 kmh 30.42 in1030.1 mb 0.00 in0.0 mm 0.00 in0.0 mm 0.00 in0.0 mm
10:45 AM 72.0°F22.2°C 53.4°F11.9°C 52% 4.5 mph E7.2 kmh E 9.2 mph14.8 kmh 30.86 in1045.0 mb 0.00 in0.0 mm 0.00 in0.0 mm 0.00 in0.0 mm
11:00 AM 71.4°F21.9°C 52.9°F11.6°C 52% 1.6 mph NE2.6 kmh NE 9.2 mph14.8 kmh 30.86 in1045.0 mb 0.00 in0.0 mm 0.00 in0.0 mm 0.00 in0.0 mm
11:05 AM 71.4°F21.9°C 52.9°F11.6°C 52% 2.2 mph SE3.5 kmh SE 3.8 mph6.1 kmh 30.41 in1029.8 mb 0.00 in0.0 mm 0.00 in0.0 mm 0.00 in0.0 mm
11:15 AM 71.8°F22.1°C 53.7°F12.1°C 53% 3.1 mph NNE5.0 kmh NNE 9.8 mph15.8 kmh 30.85 in1044.7 mb 0.00 in0.0 mm 0.00 in0.0 mm 0.00 in0.0 mm
11:30 AM 71.6°F22.0°C 53.0°F11.7°C 52% 1.6 mph NE2.6 kmh NE 11.4 mph18.3 kmh 30.86 in1045.0 mb 0.00 in0.0 mm 0.00 in0.0 mm 0.00 in0.0 mm
11:35 AM 71.8°F22.1°C 53.2°F11.8°C 52% 4.5 mph N7.2 kmh N 6.0 mph9.7 kmh 30.41 in1029.8 mb 0.00 in0.0 mm 0.00 in0.0 mm 0.00 in0.0 mm
11:45 AM 71.4°F21.9°C 52.3°F11.3°C 51% 6.9 mph NE11.1 kmh NE 9.2 mph14.8 kmh 30.86 in1045.0 mb 0.00 in0.0 mm 0.00 in0.0 mm 0.00 in0.0 mm
12:00 PM 72.1°F22.3°C 53.5°F11.9°C 52% 5.4 mph NNE8.7 kmh NNE 6.9 mph11.1 kmh 30.85 in1044.7 mb 0.00 in0.0 mm 0.00 in0.0 mm 0.00 in0.0 mm
12:05 PM 71.8°F22.1°C 53.2°F11.8°C 52% 3.1 mph NE5.0 kmh NE 4.5 mph7.2 kmh 30.41 in1029.8 mb 0.00 in0.0 mm 0.00 in0.0 mm 0.00 in0.0 mm
12:15 PM 72.1°F22.3°C 53.0°F11.7°C 51% 4.5 mph N7.2 kmh N 10.7 mph17.2 kmh 30.86 in1045.0 mb 0.00 in0.0 mm 0.00 in0.0 mm 0.00 in0.0 mm
12:30 PM 72.5°F22.5°C 51.7°F10.9°C 48% 4.5 mph SE7.2 kmh SE 7.6 mph12.2 kmh 30.85 in1044.7 mb 0.00 in0.0 mm 0.00 in0.0 mm 0.00 in0.0 mm
12:35 PM 72.3°F22.4°C 53.2°F11.8°C 51% 2.2 mph S3.5 kmh S 3.8 mph6.1 kmh 30.41 in1029.8 mb 0.00 in0.0 mm 0.00 in0.0 mm 0.00 in0.0 mm
12:45 PM 73.4°F23.0°C 51.9°F11.1°C 47% 2.2 mph E3.5 kmh E 6.0 mph9.7 kmh 30.84 in1044.4 mb 0.00 in0.0 mm 0.00 in0.0 mm 0.00 in0.0 mm
01:00 PM 73.4°F23.0°C 51.4°F10.8°C 46% 4.5 mph SE7.2 kmh SE 10.7 mph17.2 kmh 30.84 in1044.4 mb 0.00 in0.0 mm 0.00 in0.0 mm 0.00 in0.0 mm
01:05 PM 73.4°F23.0°C 51.4°F10.8°C 46% 4.5 mph SE7.2 kmh SE 6.0 mph9.7 kmh 30.40 in1029.5 mb 0.00 in0.0 mm 0.00 in0.0 mm 0.00 in0.0 mm
01:15 PM 73.9°F23.3°C 51.3°F10.7°C 45% 5.4 mph ENE8.7 kmh ENE 9.2 mph14.8 kmh 30.84 in1044.4 mb 0.00 in0.0 mm 0.00 in0.0 mm 0.00 in0.0 mm
01:30 PM 73.4°F23.0°C 50.8°F10.4°C 45% 4.5 mph NNE7.2 kmh NNE 10.7 mph17.2 kmh 30.84 in1044.4 mb 0.00 in0.0 mm 0.00 in0.0 mm 0.00 in0.0 mm
01:35 PM 73.6°F23.1°C 50.9°F10.5°C 45% 8.3 mph N13.4 kmh N 9.2 mph14.8 kmh 30.39 in1029.1 mb 0.00 in0.0 mm 0.00 in0.0 mm 0.00 in0.0 mm
01:45 PM 73.4°F23.0°C 50.8°F10.4°C 45% 3.8 mph NNE6.1 kmh NNE 8.3 mph13.4 kmh 30.83 in1044.0 mb 0.00 in0.0 mm 0.00 in0.0 mm 0.00 in0.0 mm
02:00 PM 73.2°F22.9°C 51.8°F11.0°C 47% 7.6 mph N12.2 kmh N 9.2 mph14.8 kmh 30.82 in1043.7 mb 0.00 in0.0 mm 0.00 in0.0 mm 0.00 in0.0 mm
02:05 PM 73.0°F22.8°C 51.6°F10.9°C 47% 4.5 mph NW7.2 kmh NW 6.9 mph11.1 kmh 30.38 in1028.8 mb 0.00 in0.0 mm 0.00 in0.0 mm 0.00 in0.0 mm
02:15 PM 72.7°F22.6°C 50.1°F10.1°C 45% 3.8 mph NNE6.1 kmh NNE 9.2 mph14.8 kmh 30.82 in1043.7 mb 0.00 in0.0 mm 0.00 in0.0 mm 0.00 in0.0 mm
02:30 PM 73.2°F22.9°C 50.6°F10.3°C 45% 7.6 mph NE12.2 kmh NE 9.8 mph15.8 kmh 30.82 in1043.7 mb 0.00 in0.0 mm 0.00 in0.0 mm 0.00 in0.0 mm
02:35 PM 73.0°F22.8°C 50.4°F10.2°C 45% 5.4 mph N8.7 kmh N 6.9 mph11.1 kmh 30.38 in1028.8 mb 0.00 in0.0 mm 0.00 in0.0 mm 0.00 in0.0 mm
02:45 PM 73.8°F23.2°C 50.5°F10.3°C 44% 9.2 mph N14.8 kmh N 15.2 mph24.5 kmh 30.81 in1043.3 mb 0.00 in0.0 mm 0.00 in0.0 mm 0.00 in0.0 mm
03:00 PM 73.0°F22.8°C 49.8°F9.9°C 44% 3.1 mph NE5.0 kmh NE 6.0 mph9.7 kmh 30.81 in1043.3 mb 0.00 in0.0 mm 0.00 in0.0 mm 0.00 in0.0 mm
03:05 PM 73.0°F22.8°C 49.8°F9.9°C 44% 2.2 mph NE3.5 kmh NE 3.8 mph6.1 kmh 30.37 in1028.4 mb 0.00 in0.0 mm 0.00 in0.0 mm 0.00 in0.0 mm
03:15 PM 73.2°F22.9°C 50.0°F10.0°C 44% 1.6 mph NE2.6 kmh NE 4.5 mph7.2 kmh 30.81 in1043.3 mb 0.00 in0.0 mm 0.00 in0.0 mm 0.00 in0.0 mm
03:30 PM 73.6°F23.1°C 49.7°F9.8°C 43% 3.8 mph E6.1 kmh E 7.6 mph12.2 kmh 30.81 in1043.3 mb 0.00 in0.0 mm 0.00 in0.0 mm 0.00 in0.0 mm
03:35 PM 73.6°F23.1°C 49.7°F9.8°C 43% 3.1 mph E5.0 kmh E 4.5 mph7.2 kmh 30.36 in1028.1 mb 0.00 in0.0 mm 0.00 in0.0 mm 0.00 in0.0 mm
03:45 PM 74.1°F23.4°C 50.2°F10.1°C 43% 1.6 mph SE2.6 kmh SE 5.4 mph8.7 kmh 30.80 in1043.0 mb 0.00 in0.0 mm 0.00 in0.0 mm 0.00 in0.0 mm
04:00 PM 74.8°F23.8°C 50.8°F10.4°C 43% 4.5 mph E7.2 kmh E 9.2 mph14.8 kmh 30.80 in1043.0 mb 0.00 in0.0 mm 0.00 in0.0 mm 0.00 in0.0 mm
04:05 PM 74.8°F23.8°C 50.8°F10.4°C 43% 3.1 mph NE5.0 kmh NE 3.8 mph6.1 kmh 30.36 in1028.1 mb 0.00 in0.0 mm 0.00 in0.0 mm 0.00 in0.0 mm
04:15 PM 74.8°F23.8°C 50.2°F10.1°C 42% 4.5 mph E7.2 kmh E 8.3 mph13.4 kmh 30.81 in1043.3 mb 0.00 in0.0 mm 0.00 in0.0 mm 0.00 in0.0 mm
04:30 PM 74.7°F23.7°C 50.0°F10.0°C 42% 3.1 mph ESE5.0 kmh ESE 6.0 mph9.7 kmh 30.80 in1043.0 mb 0.00 in0.0 mm 0.00 in0.0 mm 0.00 in0.0 mm
04:35 PM 74.7°F23.7°C 50.0°F10.0°C 42% 3.8 mph SE6.1 kmh SE 4.5 mph7.2 kmh 30.36 in1028.1 mb 0.00 in0.0 mm 0.00 in0.0 mm 0.00 in0.0 mm
04:45 PM 74.5°F23.6°C 49.9°F9.9°C 42% 0.7 mph ENE1.1 kmh ENE 7.6 mph12.2 kmh 30.80 in1043.0 mb 0.00 in0.0 mm 0.00 in0.0 mm 0.00 in0.0 mm
05:00 PM 73.9°F23.3°C 50.0°F10.0°C 43% 1.6 mph E2.6 kmh E 6.0 mph9.7 kmh 30.79 in1042.7 mb 0.00 in0.0 mm 0.00 in0.0 mm 0.00 in0.0 mm
05:05 PM 74.1°F23.4°C 50.2°F10.1°C 43% 3.8 mph E6.1 kmh E 4.5 mph7.2 kmh 30.35 in1027.8 mb 0.00 in0.0 mm 0.00 in0.0 mm 0.00 in0.0 mm
05:15 PM 73.6°F23.1°C 50.3°F10.2°C 44% 4.5 mph E7.2 kmh E 6.0 mph9.7 kmh 30.79 in1042.7 mb 0.00 in0.0 mm 0.00 in0.0 mm 0.00 in0.0 mm
05:30 PM 72.7°F22.6°C 50.1°F10.1°C 45% 3.1 mph NE5.0 kmh NE 6.9 mph11.1 kmh 30.80 in1043.0 mb 0.00 in0.0 mm 0.00 in0.0 mm 0.00 in0.0 mm
05:35 PM 72.9°F22.7°C 50.3°F10.2°C 45% 2.2 mph E3.5 kmh E 3.8 mph6.1 kmh 30.35 in1027.8 mb 0.00 in0.0 mm 0.00 in0.0 mm 0.00 in0.0 mm
05:45 PM 72.0°F22.2°C 52.3°F11.3°C 50% 1.6 mph NE2.6 kmh NE 3.8 mph6.1 kmh 30.79 in1042.7 mb 0.00 in0.0 mm 0.00 in0.0 mm 0.00 in0.0 mm
06:00 PM 71.2°F21.8°C 52.2°F11.2°C 51% 1.6 mph NE2.6 kmh NE 3.8 mph6.1 kmh 30.79 in1042.7 mb 0.00 in0.0 mm 0.00 in0.0 mm 0.00 in0.0 mm
06:05 PM 71.4°F21.9°C 52.3°F11.3°C 51% 0.7 mph NE1.1 kmh NE 1.6 mph2.6 kmh 30.35 in1027.8 mb 0.00 in0.0 mm 0.00 in0.0 mm 0.00 in0.0 mm
06:15 PM 70.5°F21.4°C 52.0°F11.1°C 52% 0.7 mph NE1.1 kmh NE 2.2 mph3.5 kmh 30.79 in1042.7 mb 0.00 in0.0 mm 0.00 in0.0 mm 0.00 in0.0 mm
06:30 PM 69.8°F21.0°C 51.9°F11.1°C 53% 1.6 mph NE2.6 kmh NE 3.1 mph5.0 kmh 30.80 in1043.0 mb 0.00 in0.0 mm 0.00 in0.0 mm 0.00 in0.0 mm
06:35 PM 69.8°F21.0°C 51.9°F11.1°C 53% 0.7 mph NE1.1 kmh NE 1.6 mph2.6 kmh 30.35 in1027.8 mb 0.00 in0.0 mm 0.00 in0.0 mm 0.00 in0.0 mm
06:45 PM 68.9°F20.5°C 51.6°F10.9°C 54% 2.2 mph NE3.5 kmh NE 3.8 mph6.1 kmh 30.80 in1043.0 mb 0.00 in0.0 mm 0.00 in0.0 mm 0.00 in0.0 mm
07:00 PM 68.4°F20.2°C 51.6°F10.9°C 55% 2.2 mph NE3.5 kmh NE 3.1 mph5.0 kmh 30.79 in1042.7 mb 0.00 in0.0 mm 0.00 in0.0 mm 0.00 in0.0 mm
07:05 PM 68.4°F20.2°C 51.6°F10.9°C 55% 2.2 mph NE3.5 kmh NE 3.1 mph5.0 kmh 30.35 in1027.8 mb 0.00 in0.0 mm 0.00 in0.0 mm 0.00 in0.0 mm
07:15 PM 66.2°F19.0°C 51.9°F11.1°C 60% 1.6 mph NE2.6 kmh NE 3.1 mph5.0 kmh 30.80 in1043.0 mb 0.00 in0.0 mm 0.00 in0.0 mm 0.00 in0.0 mm
07:30 PM 65.5°F18.6°C 51.7°F10.9°C 61% 3.1 mph NE5.0 kmh NE 3.8 mph6.1 kmh 30.81 in1043.3 mb 0.00 in0.0 mm 0.00 in0.0 mm 0.00 in0.0 mm
07:35 PM 65.5°F18.6°C 51.7°F10.9°C 61% 1.6 mph NE2.6 kmh NE 2.2 mph3.5 kmh 30.36 in1028.1 mb 0.00 in0.0 mm 0.00 in0.0 mm 0.00 in0.0 mm
07:45 PM 64.0°F17.8°C 51.6°F10.9°C 64% 2.2 mph NE3.5 kmh NE 3.1 mph5.0 kmh 30.80 in1043.0 mb 0.00 in0.0 mm 0.00 in0.0 mm 0.00 in0.0 mm
08:00 PM 62.8°F17.1°C 52.8°F11.6°C 70% 2.2 mph NE3.5 kmh NE 3.8 mph6.1 kmh 30.81 in1043.3 mb 0.00 in0.0 mm 0.00 in0.0 mm 0.00 in0.0 mm
08:05 PM 63.0°F17.2°C 53.0°F11.7°C 70% 2.2 mph NE3.5 kmh NE 3.1 mph5.0 kmh 30.37 in1028.4 mb 0.00 in0.0 mm 0.00 in0.0 mm 0.00 in0.0 mm
08:15 PM 62.4°F16.9°C 52.9°F11.6°C 71% 2.2 mph NE3.5 kmh NE 3.1 mph5.0 kmh 30.81 in1043.3 mb 0.00 in0.0 mm 0.00 in0.0 mm 0.00 in0.0 mm
08:30 PM 62.1°F16.7°C 52.5°F11.4°C 71% 1.6 mph NE2.6 kmh NE 3.1 mph5.0 kmh 30.82 in1043.7 mb 0.00 in0.0 mm 0.00 in0.0 mm 0.00 in0.0 mm
08:35 PM 62.1°F16.7°C 52.5°F11.4°C 71% 1.6 mph NE2.6 kmh NE 3.1 mph5.0 kmh 30.37 in1028.4 mb 0.00 in0.0 mm 0.00 in0.0 mm 0.00 in0.0 mm
08:45 PM 61.5°F16.4°C 52.0°F11.1°C 71% 2.2 mph NE3.5 kmh NE 4.5 mph7.2 kmh 30.82 in1043.7 mb 0.00 in0.0 mm 0.00 in0.0 mm 0.00 in0.0 mm
09:00 PM 61.2°F16.2°C 52.1°F11.2°C 72% 2.2 mph NE3.5 kmh NE 3.8 mph6.1 kmh 30.82 in1043.7 mb 0.00 in0.0 mm 0.00 in0.0 mm 0.00 in0.0 mm
09:05 PM 61.3°F16.3°C 51.9°F11.1°C 71% 3.1 mph NE5.0 kmh NE 3.8 mph6.1 kmh 30.37 in1028.4 mb 0.00 in0.0 mm 0.00 in0.0 mm 0.00 in0.0 mm
09:15 PM 60.6°F15.9°C 51.5°F10.8°C 72% 2.2 mph NE3.5 kmh NE 3.1 mph5.0 kmh 30.82 in1043.7 mb 0.00 in0.0 mm 0.00 in0.0 mm 0.00 in0.0 mm
09:30 PM 60.3°F15.7°C 51.6°F10.9°C 73% 3.1 mph NE5.0 kmh NE 5.4 mph8.7 kmh 30.83 in1044.0 mb 0.00 in0.0 mm 0.00 in0.0 mm 0.00 in0.0 mm
09:35 PM 60.3°F15.7°C 51.6°F10.9°C 73% 3.1 mph NE5.0 kmh NE 3.8 mph6.1 kmh 30.38 in1028.8 mb 0.00 in0.0 mm 0.00 in0.0 mm 0.00 in0.0 mm
09:45 PM 59.9°F15.5°C 51.2°F10.7°C 73% 3.1 mph NE5.0 kmh NE 4.5 mph7.2 kmh 30.82 in1043.7 mb 0.00 in0.0 mm 0.00 in0.0 mm 0.00 in0.0 mm
10:00 PM 59.5°F15.3°C 51.2°F10.7°C 74% 2.2 mph NNE3.5 kmh NNE 3.8 mph6.1 kmh 30.82 in1043.7 mb 0.00 in0.0 mm 0.00 in0.0 mm 0.00 in0.0 mm
10:05 PM 59.7°F15.4°C 51.4°F10.8°C 74% 2.2 mph N3.5 kmh N 3.1 mph5.0 kmh 30.38 in1028.8 mb 0.00 in0.0 mm 0.00 in0.0 mm 0.00 in0.0 mm
10:15 PM 59.2°F15.1°C 51.3°F10.7°C 75% 2.2 mph NNE3.5 kmh NNE 3.8 mph6.1 kmh 30.83 in1044.0 mb 0.00 in0.0 mm 0.00 in0.0 mm 0.00 in0.0 mm
10:30 PM 58.8°F14.9°C 50.9°F10.5°C 75% 1.6 mph NNE2.6 kmh NNE 3.8 mph6.1 kmh 30.83 in1044.0 mb 0.00 in0.0 mm 0.00 in0.0 mm 0.00 in0.0 mm
10:35 PM 58.8°F14.9°C 50.9°F10.5°C 75% 1.6 mph N2.6 kmh N 2.2 mph3.5 kmh 30.38 in1028.8 mb 0.00 in0.0 mm 0.00 in0.0 mm 0.00 in0.0 mm
10:45 PM 58.6°F14.8°C 51.1°F10.6°C 76% 2.2 mph NE3.5 kmh NE 3.1 mph5.0 kmh 30.82 in1043.7 mb 0.00 in0.0 mm 0.00 in0.0 mm 0.00 in0.0 mm
11:00 PM 58.6°F14.8°C 51.4°F10.8°C 77% 2.2 mph NE3.5 kmh NE 4.5 mph7.2 kmh 30.83 in1044.0 mb 0.00 in0.0 mm 0.00 in0.0 mm 0.00 in0.0 mm
11:05 PM 58.6°F14.8°C 51.4°F10.8°C 77% 1.6 mph NE2.6 kmh NE 2.2 mph3.5 kmh 30.38 in1028.8 mb 0.00 in0.0 mm 0.00 in0.0 mm 0.00 in0.0 mm
11:15 PM 58.6°F14.8°C 51.4°F10.8°C 77% 1.6 mph NE2.6 kmh NE 4.5 mph7.2 kmh 30.82 in1043.7 mb 0.00 in0.0 mm 0.00 in0.0 mm 0.00 in0.0 mm
11:30 PM 58.8°F14.9°C 51.3°F10.7°C 76% 2.2 mph NE3.5 kmh NE 3.8 mph6.1 kmh 30.82 in1043.7 mb 0.00 in0.0 mm 0.00 in0.0 mm 0.00 in0.0 mm
11:35 PM 58.8°F14.9°C 51.3°F10.7°C 76% 2.2 mph N3.5 kmh N 3.8 mph6.1 kmh 30.38 in1028.8 mb 0.00 in0.0 mm 0.00 in0.0 mm 0.00 in0.0 mm
11:45 PM 58.8°F14.9°C 51.3°F10.7°C 76% 1.6 mph NE2.6 kmh NE 3.8 mph6.1 kmh 30.82 in1043.7 mb 0.00 in0.0 mm 0.00 in0.0 mm 0.00 in0.0 mm